Norberto de la Riestra, Argentina
Current Conditions -  °F | °C
As of 4:00 PM on Friday 28 Nov 2014 (Local Time) from SAEZ Reporting Station
Clear Clear  
Wind Chill: 84°   Ceiling: Unl
Heat Index: 84°   Visibility: 6mi
Dew Point: 43°   Wind: 16mph
Humidity: 23%   Direction: 20°NNE
Pressure: 29.88"   Gusts: NA
Location:  35.27°S, 59.77°W
Report Text: SAEZ 281900Z 02014KT CAVOK 29/06 Q1012
Loading
Personal Weather Stations






























Interactive Weather Map New forecast layout! Learn more

10-Day Weather Forecast

Advertisements
Track Severe Weather on mobile